Aviation Digital Data Service (ADDS)

Output produced by METARs form (1920 UTC 23 April 2018)
found at http://www.aviationweather.gov/adds/metars/
 
KBQP 231915Z AUTO 23008KT 10SM BKN025 BKN029 OVC043 18/12 A2997 RMK AO2 T01810124
KBQP 231855Z AUTO 25004KT 10SM OVC025 17/12 A2997 RMK AO2 T01740120
KBQP 231835Z AUTO 23005KT 10SM SCT022 OVC033 18/12 A2997 RMK AO2 T01780123
KBQP 231815Z AUTO 26005KT 10SM BKN022 OVC031 17/12 A2997 RMK AO2 T01650119
KBQP 231755Z AUTO 27007KT 10SM BKN022 OVC029 17/12 A2998 RMK AO2 T01740116 10178 20109
KBQP 231735Z AUTO 24003KT 10SM SCT018 BKN024 OVC028 17/12 A2998 RMK AO2 T01680119
KBQP 231715Z AUTO 24006KT 10SM SCT014 BKN023 OVC029 17/12 A2998 RMK AO2 T01650124
KBQP 231655Z AUTO 27004KT 10SM BKN014 OVC021 15/12 A3000 RMK AO2 T01490124
KBQP 231635Z AUTO 27006KT 10SM OVC014 15/12 A3000 RMK AO2 T01450121
KBQP 231615Z AUTO 28006KT 10SM OVC014 15/12 A3001 RMK AO2 T01450123
KBQP 231555Z AUTO 27005KT 10SM OVC014 14/12 A3000 RMK AO2 T01420122
KBQP 231535Z AUTO 28004KT 10SM OVC014 14/12 A3000 RMK AO2 T01410120
KBQP 231515Z AUTO 26006KT 10SM OVC014 14/12 A2999 RMK AO2 T01400121
KBQP 231455Z AUTO 25003KT 10SM OVC012 14/12 A2999 RMK AO2 T01360124
KBQP 231435Z AUTO 25008KT 10SM OVC012 13/12 A2999 RMK AO2 T01320119
KBQP 231415Z AUTO 26004KT 10SM OVC014 13/12 A2999 RMK AO2 T01300120
KBQP 231355Z AUTO 27006KT 10SM OVC014 13/12 A2998 RMK AO2 T01290121
KBQP 231335Z AUTO 27003KT 10SM OVC016 13/12 A2998 RMK AO2 T01260122
KBQP 231315Z AUTO 26003KT 10SM OVC016 13/12 A2998 RMK AO2 T01250121
KBQP 231255Z AUTO 26004KT 10SM OVC016 12/12 A2998 RMK AO2 T01210118
KBQP 231235Z AUTO 00000KT 10SM OVC018 12/12 A2997 RMK AO2 T01180115
KBQP 231215Z AUTO 27003KT 10SM OVC018 11/11 A2997 RMK AO2 T01140111
KBQP 231155Z AUTO 00000KT 10SM OVC018 11/11 A2996 RMK AO2 T01080105 10125 20094
KBQP 231135Z AUTO 00000KT 10SM OVC020 11/10 A2995 RMK AO2 T01050101
KBQP 231115Z AUTO 25003KT 10SM BKN020 10/10 A2995 RMK AO2 T01000096
KBQP 231055Z AUTO 25004KT 10SM SCT022 10/09 A2994 RMK AO2 T00960093
KBQP 231035Z AUTO 26004KT 10SM BKN022 10/10 A2994 RMK AO2 T00970095
KBQP 231015Z AUTO 26003KT 10SM CLR 09/09 A2994 RMK AO2 T00940091
KBQP 230955Z AUTO 27004KT 10SM SCT022 10/10 A2993 RMK AO2 T00970095
KBQP 230935Z AUTO 27004KT 10SM BKN022 10/10 A2993 RMK AO2 T01020099
KBQP 230915Z AUTO 27005KT 10SM BKN022 10/10 A2993 RMK AO2 T01020099
KBQP 230855Z AUTO 28004KT 10SM CLR 10/09 A2993 RMK AO2 T00960093
KBQP 230835Z AUTO 27003KT 10SM CLR 10/10 A2993 RMK AO2 T00980095
KBQP 230815Z AUTO 25003KT 10SM CLR 10/10 A2992 RMK AO2 T01030100
KBQP 230755Z AUTO 26003KT 10SM CLR 11/11 A2992 RMK AO2 T01080105
KBQP 230735Z AUTO 27005KT 10SM BKN044 11/11 A2993 RMK AO2 T01140111
KBQP 230715Z AUTO 26005KT 10SM OVC044 12/12 A2993 RMK AO2 T01200115
KBQP 230655Z AUTO 28007KT 10SM OVC044 12/11 A2994 RMK AO2 T01220113
KBQP 230635Z AUTO 27008KT 10SM OVC044 12/11 A2994 RMK AO2 T01230114
KBQP 230615Z AUTO 27007KT 10SM OVC044 13/11 A2994 RMK AO2 T01250113
KBQP 230555Z AUTO 26006KT 10SM OVC044 13/11 A2994 RMK AO2 T01250112 10161 20113 402130113
KBQP 230535Z AUTO 27005KT 10SM OVC044 13/11 A2994 RMK AO2 T01250112
KBQP 230515Z AUTO 26006KT 10SM OVC044 12/11 A2994 RMK AO2 T01220112
KBQP 230455Z AUTO 26005KT 10SM BKN044 12/11 A2995 RMK AO2 T01180111
KBQP 230435Z AUTO 27006KT 10SM CLR 11/11 A2995 RMK AO2 T01130110
KBQP 230415Z AUTO 26005KT 10SM CLR 12/11 A2995 RMK AO2 T01150110
KBQP 230355Z AUTO 26005KT 10SM CLR 12/11 A2996 RMK AO2 T01160110
KBQP 230335Z AUTO 26006KT 10SM CLR 12/11 A2996 RMK AO2 T01200110
KBQP 230315Z AUTO 26006KT 10SM CLR 12/11 A2996 RMK AO2 T01200108
KBQP 230255Z AUTO 27005KT 10SM CLR 13/11 A2996 RMK AO2 T01250107
KBQP 230235Z AUTO 27006KT 10SM CLR 13/11 A2995 RMK AO2 T01310105
KBQP 230215Z AUTO 28006KT 10SM CLR 13/11 A2995 RMK AO2 T01320110
KBQP 230155Z AUTO 28006KT 10SM SCT034 14/11 A2994 RMK AO2 T01360111
KBQP 230135Z AUTO 28008KT 10SM BKN034 14/11 A2994 RMK AO2 T01400112
KBQP 230115Z AUTO 28010G14KT 10SM SCT032 14/12 A2993 RMK AO2 T01420116
KBQP 230055Z AUTO 27011G15KT 10SM OVC032 15/12 A2992 RMK AO2 T01500115
KBQP 230035Z AUTO 27011G18KT 10SM SCT023 OVC030 15/12 A2992 RMK AO2 T01530120
KBQP 230015Z AUTO 28013G19KT 10SM SCT021 OVC030 16/12 A2991 RMK AO2 T01560120
KBQP 222355Z AUTO 27009G17KT 10SM SCT023 OVC028 16/13 A2991 RMK AO2 T01620125 10213 20162
KBQP 222335Z AUTO 27012G18KT 10SM BKN025 OVC031 17/13 A2990 RMK AO2 T01720129
KBQP 222315Z AUTO 27012G18KT 10SM SCT029 SCT035 18/13 A2989 RMK AO2 T01810131
KBQP 222255Z AUTO 26011G16KT 10SM SCT027 SCT034 SCT042 20/13 A2988 RMK AO2 T01950132
KBQP 222235Z AUTO 26009G16KT 10SM BKN027 BKN034 BKN042 20/14 A2988 RMK AO2 T01950140
KBQP 222215Z AUTO 26011G16KT 10SM SCT026 SCT041 BKN055 20/14 A2987 RMK AO2 T01970141
KBQP 222155Z AUTO 27011G15KT 10SM SCT022 BKN032 OVC055 20/15 A2987 RMK AO2 T02040152
KBQP 222135Z AUTO 27007G14KT 10SM BKN022 BKN033 BKN055 20/15 A2987 RMK AO2 T02000148
KBQP 222115Z AUTO 26007KT 10SM BKN024 BKN044 OVC050 20/15 A2987 RMK AO2 T02040153
KBQP 222055Z AUTO 28007G14KT 10SM SCT022 BKN040 BKN050 20/15 A2988 RMK AO2 T02000148
KBQP 222035Z AUTO 28005KT 10SM SCT018 BKN028 OVC055 20/16 A2989 RMK AO2 T02010160
KBQP 222015Z AUTO 30006KT 10SM SCT014 BKN026 OVC031 18/17 A2990 RMK AO2 T01820165
KBQP 221955Z AUTO 27005KT 10SM SCT010 BKN014 OVC024 18/17 A2991 RMK AO2 T01760171
KBQP 221935Z AUTO 30005KT 10SM BKN009 BKN016 OVC024 17/17 A2991 RMK AO2 T01730170
KBQP 221915Z AUTO 00000KT 10SM SCT009 BKN012 OVC020 18/18 A2991 RMK AO2 T01800177
KBQP 221855Z AUTO 00000KT 10SM SCT007 OVC013 17/17 A2992 RMK AO2 T01700166
KBQP 221835Z AUTO 00000KT 5SM BR BKN009 OVC015 17/17 A2992 RMK AO2 T01690165
KBQP 221815Z AUTO 00000KT 4SM BR SCT008 BKN011 OVC016 17/17 A2992 RMK AO2 T01670165
KBQP 221755Z AUTO 00000KT 10SM SCT007 OVC019 17/17 A2993 RMK AO2 T01700166 10179 20146
KBQP 221735Z AUTO 00000KT 10SM SCT013 OVC021 17/17 A2993 RMK AO2 T01700166
KBQP 221715Z AUTO 00000KT 10SM BKN010 BKN013 OVC021 17/17 A2992 RMK AO2 T01670165
KBQP 221655Z AUTO 00000KT 7SM DZ OVC008 17/17 A2993 RMK AO2 T01680165
KBQP 221635Z AUTO 00000KT 10SM BKN010 OVC014 17/17 A2993 RMK AO2 T01720169
KBQP 221615Z AUTO 00000KT 10SM BKN008 OVC014 17/17 A2994 RMK AO2 T01720170
KBQP 221555Z AUTO 00000KT 10SM BKN006 BKN016 OVC028 18/17 A2994 RMK AO2 T01760174
KBQP 221535Z AUTO 00000KT 10SM SCT006 SCT016 OVC026 17/16 A2994 RMK AO2 T01650162
KBQP 221515Z AUTO 00000KT 10SM SCT004 BKN026 OVC038 17/16 A2994 RMK AO2 T01650161
KBQP 221455Z AUTO 00000KT 10SM SCT004 BKN028 OVC040 16/16 A2994 RMK AO2 T01580155
KBQP 221435Z AUTO 00000KT 10SM OVC028 16/15 A2994 RMK AO2 T01560153
KBQP 221415Z AUTO 00000KT 10SM OVC032 16/16 A2994 RMK AO2 T01580155
KBQP 221355Z AUTO 00000KT 10SM OVC030 16/15 A2994 RMK AO2 LTG DSNT N T01550152
KBQP 221335Z AUTO 00000KT 10SM BKN033 OVC041 15/15 A2993 RMK AO2 T01540150
KBQP 221315Z AUTO 00000KT 10SM SCT036 BKN043 OVC100 15/15 A2993 RMK AO2 T01500147
KBQP 221255Z AUTO 00000KT 5SM RA SCT080 OVC100 15/15 A2994 RMK AO2 T01500146
KBQP 221235Z AUTO 00000KT 10SM -DZ SCT080 OVC100 15/15 A2994 RMK AO2 T01480145
KBQP 221215Z AUTO 00000KT 4SM -RA OVC100 15/15 A2994 RMK AO2 T01470145
KBQP 221155Z AUTO 00000KT 5SM -RA SCT048 SCT055 OVC110 15/14 A2995 RMK AO2 T01460143 10167 20146
KBQP 221135Z AUTO 00000KT 5SM -RA SCT038 BKN055 OVC090 15/15 A2994 RMK AO2 T01470145
KBQP 221115Z AUTO 00000KT 7SM OVC055 15/14 A2994 RMK AO2 T01460143
KBQP 221055Z AUTO 00000KT 10SM -DZ SCT036 SCT044 OVC055 15/15 A2994 RMK AO2 T01470145
KBQP 221035Z AUTO 00000KT 10SM OVC055 15/15 A2995 RMK AO2 T01470145
KBQP 221015Z AUTO 00000KT 7SM -DZ OVC055 15/15 A2995 RMK AO2 T01480145
KBQP 220955Z AUTO 00000KT 7SM -RA SCT049 OVC055 15/15 A2996 RMK AO2 T01500147
KBQP 220935Z AUTO 28007KT 7SM +RA OVC049 15/15 A2996 RMK AO2 T01520150
KBQP 220915Z AUTO 26005KT 3SM +RA SCT006 BKN032 OVC047 16/15 A2996 RMK AO2 T01560153
KBQP 220855Z AUTO 30008KT 3SM +RA SCT006 BKN012 OVC019 16/16 A2997 RMK AO2 T01600155
KBQP 220835Z AUTO 00000KT 4SM RA OVC014 16/16 A2997 RMK AO2 T01580155
KBQP 220815Z AUTO 00000KT 5SM -RA SCT003 SCT009 OVC014 16/16 A2995 RMK AO2 T01580155
KBQP 220755Z AUTO 00000KT 1 1/2SM +RA BKN003 BKN009 OVC016 16/16 A2997 RMK AO2 T01590155
KBQP 220730Z AUTO 00000KT 7SM RA SCT003 BKN018 OVC023 16/16 A2997 RMK AO2 T01600156
KBQP 220715Z AUTO 00000KT 3SM RA BKN018 OVC024 16/16 A2997 RMK AO2 LTG DSNT W T01600157
KBQP 220655Z AUTO 00000KT 3SM +RA BKN018 OVC024 16/16 A2999 RMK AO2 T01640160
KBQP 220635Z AUTO 33006G10KT 5SM +RA BKN020 BKN035 OVC075 16/16 A3002 RMK AO2 LTG DSNT W T01620160
KBQP 220615Z AUTO 28010KT 10SM -RA SCT050 SCT075 OVC100 17/16 A3000 RMK AO2 T01650162
KBQP 220555Z AUTO 11005KT 10SM SCT050 BKN090 OVC110 17/16 A2993 RMK AO2 LTG DSNT N AND SW T01650161 10191 20152 402320063
KBQP 220535Z AUTO 00000KT 10SM RA SCT090 OVC110 17/16 A2994 RMK AO2 LTG DSNT N T01650161
KBQP 220515Z AUTO 11003KT 10SM -RA OVC090 17/16 A2996 RMK AO2 LTG DSNT W THRU N T01650160
KBQP 220455Z AUTO 11003KT 10SM -VCTSRA BKN090 BKN110 16/16 A2994 RMK AO2 LTG DSNT S THRU NW T01600156
KBQP 220435Z AUTO 00000KT 10SM SCT090 BKN120 16/15 A2998 RMK AO2 LTG DSNT SW T01550152
KBQP 220415Z AUTO 00000KT 10SM SCT060 BKN120 16/15 A2998 RMK AO2 LTG DSNT W T01550152
KBQP 220355Z AUTO 00000KT 10SM BKN060 BKN100 BKN120 15/15 A2999 RMK AO2 T01520150
KBQP 220335Z AUTO 00000KT 10SM SCT070 BKN110 16/15 A3000 RMK AO2 LTG DSNT NW T01550151
KBQP 220315Z AUTO 00000KT 10SM SCT110 16/15 A3000 RMK AO2 LTG DSNT NW T01550152
KBQP 220255Z AUTO 00000KT 10SM SCT090 BKN110 16/16 A2998 RMK AO2 LTG DSNT W T01630160
KBQP 220235Z AUTO 06003KT 10SM -RA OVC110 17/15 A2997 RMK AO2 LTG DSNT W T01650152
KBQP 220215Z AUTO 00000KT 10SM RA BKN110 19/12 A3000 RMK AO2 LTG DSNT W T01910116
KBQP 220155Z AUTO 10005KT 10SM -RA SCT049 SCT070 BKN110 19/11 A2997 RMK AO2 LTG DSNT W T01880112
KBQP 220135Z AUTO 09004KT 10SM SCT120 19/11 A2999 RMK AO2 LTG DSNT W T01870110
KBQP 220115Z AUTO 09003KT 10SM CLR 19/11 A3001 RMK AO2 T01870110
KBQP 220055Z AUTO 09003KT 10SM CLR 19/11 A3000 RMK AO2 LTG DSNT SW T01870109
KBQP 220035Z AUTO 09003KT 10SM CLR 19/11 A3001 RMK AO2 T01850110
KBQP 220015Z AUTO 09003KT 10SM CLR 19/12 A3001 RMK AO2 T01850115
KBQP 212355Z AUTO 00000KT 10SM CLR 19/12 A3002 RMK AO2 T01890118 10232 20185
KBQP 212335Z AUTO 00000KT 10SM SCT070 20/12 A3004 RMK AO2 T01960124
KBQP 212315Z AUTO 00000KT 10SM CLR 20/12 A3003 RMK AO2 T01950118
KBQP 212255Z AUTO 00000KT 10SM CLR 20/12 A3003 RMK AO2 T01980116
KBQP 212235Z AUTO 00000KT 10SM SCT060 21/11 A3004 RMK AO2 LTG DSNT SW T02060106
KBQP 212215Z AUTO 00000KT 10SM SCT060 21/11 A3004 RMK AO2 T02090105
KBQP 212155Z AUTO 00000KT 10SM CLR 21/09 A3004 RMK AO2 T02100094
KBQP 212135Z AUTO 00000KT 10SM CLR 21/09 A3003 RMK AO2 T02090090
KBQP 212115Z AUTO 00000KT 10SM CLR 21/08 A3003 RMK AO2 LTG DSNT W T02100079
KBQP 212055Z AUTO 11005KT 10SM CLR 21/08 A3003 RMK AO2 T02110079
KBQP 212035Z AUTO 13004KT 10SM CLR 22/09 A3005 RMK AO2 T02180090
KBQP 212015Z AUTO 13004KT 10SM CLR 22/09 A3006 RMK AO2 T02160091
KBQP 211955Z AUTO 11003KT 10SM CLR 22/09 A3007 RMK AO2 T02200091
KBQP 211935Z AUTO 13006KT 10SM CLR 23/09 A3008 RMK AO2 T02310092
KBQP 211915Z AUTO 14005KT 10SM CLR 23/09 A3008 RMK AO2 LTG DSNT W T02320094
KBQP 211855Z AUTO 13008KT 110V170 10SM CLR 23/09 A3009 RMK AO2 T02270091
KBQP 211835Z AUTO 16004KT 10SM CLR 22/09 A3010 RMK AO2 T02240091
KBQP 211815Z AUTO 16007KT 10SM CLR 22/09 A3010 RMK AO2 T02190094
KBQP 211755Z AUTO 16005KT 10SM CLR 22/10 A3011 RMK AO2 T02220096 10222 20095
KBQP 211735Z AUTO 14005KT 10SM CLR 21/09 A3012 RMK AO2 LTG DSNT W T02120091
KBQP 211715Z AUTO 14005KT 10SM CLR 22/09 A3013 RMK AO2 LTG DSNT W T02150089
KBQP 211655Z AUTO 17005KT 10SM CLR 21/09 A3013 RMK AO2 T02120093
KBQP 211635Z AUTO 14006KT 10SM CLR 20/09 A3015 RMK AO2 LTG DSNT W T02000094
KBQP 211615Z AUTO 14004KT 10SM CLR 20/09 A3015 RMK AO2 LTG DSNT W T01950091
KBQP 211555Z AUTO 11004KT 10SM CLR 18/09 A3016 RMK AO2 T01810091
KBQP 211535Z AUTO 12003KT 10SM CLR 18/09 A3016 RMK AO2 T01790088
KBQP 211515Z AUTO 11004KT 10SM CLR 18/09 A3017 RMK AO2 T01750088
KBQP 211455Z AUTO 11004KT 10SM CLR 17/09 A3017 RMK AO2 T01720089
KBQP 211435Z AUTO 11004KT 10SM CLR 16/09 A3017 RMK AO2 LTG DSNT W T01610088
KBQP 211415Z AUTO 09008KT 10SM CLR 15/09 A3016 RMK AO2 T01510085
KBQP 211355Z AUTO 10005KT 10SM CLR 16/09 A3018 RMK AO2 LTG DSNT W T01610089
KBQP 211335Z AUTO 08003KT 10SM CLR 15/09 A3018 RMK AO2 T01470086
KBQP 211315Z AUTO 09004KT 10SM CLR 14/09 A3018 RMK AO2 T01430089
KBQP 211255Z AUTO 07004KT 10SM CLR 13/09 A3017 RMK AO2 T01260093
KBQP 211235Z AUTO 07004KT 10SM CLR 11/10 A3016 RMK AO2 T01120095
KBQP 211215Z AUTO 07003KT 10SM CLR 10/10 A3015 RMK AO2 LTG DSNT W T00980095
KBQP 211155Z AUTO 08003KT 10SM CLR 09/09 A3015 RMK AO2 T00940091 10104 20063
KBQP 211135Z AUTO 08003KT 10SM CLR 09/09 A3015 RMK AO2 T00900086
KBQP 211115Z AUTO 07003KT 10SM CLR 09/09 A3015 RMK AO2 T00870085
KBQP 211055Z AUTO 07003KT 10SM CLR 09/09 A3015 RMK AO2 T00900086
KBQP 211035Z AUTO 00000KT 10SM CLR 08/08 A3015 RMK AO2 T00830080
KBQP 211015Z AUTO 00000KT 10SM CLR 09/08 A3015 RMK AO2 T00860083
KBQP 210955Z AUTO 00000KT 10SM CLR 10/09 A3015 RMK AO2 T00950091
KBQP 210935Z AUTO 00000KT 10SM CLR 10/09 A3015 RMK AO2 T01020085
KBQP 210915Z AUTO 08004KT 10SM CLR 10/08 A3014 RMK AO2 T01020080
KBQP 210855Z AUTO 08004KT 10SM CLR 10/08 A3014 RMK AO2 T01010080
KBQP 210835Z AUTO 08004KT 10SM CLR 09/08 A3015 RMK AO2 T00920082
KBQP 210815Z AUTO 07004KT 10SM CLR 08/07 A3015 RMK AO2 T00770074
KBQP 210755Z AUTO 00000KT 10SM CLR 06/06 A3015 RMK AO2 T00630060
KBQP 210735Z AUTO 00000KT 10SM CLR 07/07 A3015 RMK AO2 T00730070
KBQP 210715Z AUTO 00000KT 10SM CLR 07/06 A3016 RMK AO2 T00660063
KBQP 210655Z AUTO 00000KT 10SM CLR 07/06 A3017 RMK AO2 T00660063
KBQP 210635Z AUTO 00000KT 10SM CLR 07/07 A3018 RMK AO2 T00670065
KBQP 210615Z AUTO 00000KT 10SM CLR 07/07 A3018 RMK AO2 T00700067
KBQP 210555Z AUTO 00000KT 10SM CLR 07/07 A3018 RMK AO2 T00700067 10177 20066 401970030
KBQP 210535Z AUTO 00000KT 10SM CLR 08/07 A3018 RMK AO2 T00760071
KBQP 210515Z AUTO 00000KT 10SM CLR 07/07 A3019 RMK AO2 T00670065
KBQP 210455Z AUTO 00000KT 10SM CLR 07/07 A3019 RMK AO2 T00730070
KBQP 210435Z AUTO 00000KT 10SM CLR 07/07 A3019 RMK AO2 T00720069
KBQP 210415Z AUTO 00000KT 10SM CLR 07/07 A3019 RMK AO2 T00720069
KBQP 210355Z AUTO 00000KT 10SM CLR 08/07 A3020 RMK AO2 T00750072
KBQP 210335Z AUTO 00000KT 10SM CLR 08/07 A3020 RMK AO2 T00790069
KBQP 210315Z AUTO 00000KT 10SM CLR 08/07 A3021 RMK AO2 T00770071
KBQP 210255Z AUTO 00000KT 10SM CLR 09/06 A3021 RMK AO2 T00860062
KBQP 210235Z AUTO 00000KT 10SM CLR 09/06 A3021 RMK AO2 T00910062
KBQP 210215Z AUTO 00000KT 10SM CLR 10/05 A3020 RMK AO2 T01000051
KBQP 210155Z AUTO 00000KT 10SM CLR 10/06 A3020 RMK AO2 T00960059
KBQP 210135Z AUTO 00000KT 10SM CLR 10/06 A3020 RMK AO2 T01020058
KBQP 210115Z AUTO 00000KT 10SM CLR 10/06 A3020 RMK AO2 T01010057
KBQP 210055Z AUTO 00000KT 10SM CLR 12/05 A3019 RMK AO2 T01230053
KBQP 210035Z AUTO 00000KT 10SM CLR 14/05 A3019 RMK AO2 T01400052
KBQP 210015Z AUTO 00000KT 10SM CLR 17/04 A3019 RMK AO2 T01650039
KBQP 202355Z AUTO 10004KT 10SM CLR 18/03 A3020 RMK AO2 T01790026 10197 20165
KBQP 202335Z AUTO 08005KT 10SM CLR 19/02 A3020 RMK AO2 T01860017
KBQP 202315Z AUTO 08005KT 10SM CLR 19/02 A3020 RMK AO2 T01910016
KBQP 202255Z AUTO 07005KT 10SM CLR 20/02 A3020 RMK AO2 LTG DSNT NW T01950021
KBQP 202235Z AUTO 06006KT 10SM CLR 20/03 A3020 RMK AO2 T01950025
KBQP 202215Z AUTO 04005KT 10SM CLR 20/03 A3021 RMK AO2 T01970026
KBQP 202155Z AUTO 05006KT 10SM CLR 20/03 A3021 RMK AO2 T01950026
KBQP 202135Z AUTO 01006KT 10SM CLR 19/03 A3023 RMK AO2 T01940025
KBQP 202115Z AUTO 06004KT 10SM CLR 19/02 A3024 RMK AO2 T01910022
KBQP 202055Z AUTO 03004KT 10SM CLR 19/03 A3025 RMK AO2 T01930027
KBQP 202035Z AUTO 03006KT 10SM CLR 19/02 A3026 RMK AO2 T01910022
KBQP 202015Z AUTO 07003KT 10SM CLR 19/03 A3027 RMK AO2 T01890027
KBQP 201955Z AUTO 06008KT 020V090 10SM CLR 19/02 A3028 RMK AO2 T01880024
KBQP 201935Z AUTO 04005KT 10SM CLR 18/02 A3028 RMK AO2 T01800017